createdAt,value
2023-02-16T00:00:07.318Z,30.83
2023-02-16T00:05:25.005Z,32.97
2023-02-16T00:10:32.775Z,30.23
2023-02-16T00:15:37.074Z,29.57
2023-02-16T00:20:39.919Z,33.10
2023-02-16T00:25:42.925Z,31.50
2023-02-16T00:30:47.823Z,29.23
2023-02-16T00:35:51.060Z,30.20
2023-02-16T00:40:54.037Z,34.23
2023-02-16T00:45:58.705Z,33.27
2023-02-16T00:51:01.876Z,36.80
2023-02-16T00:56:05.276Z,35.23
2023-02-16T01:01:14.264Z,31.70
2023-02-16T01:06:34.986Z,31.73
2023-02-16T01:11:37.965Z,43.20
2023-02-16T01:16:43.420Z,36.20
2023-02-16T01:21:46.666Z,39.40
2023-02-16T01:26:51.821Z,38.70
2023-02-16T01:31:57.024Z,37.60
2023-02-16T01:36:59.942Z,34.80
2023-02-16T01:42:31.119Z,41.03
2023-02-16T01:47:41.961Z,38.60
2023-02-16T01:52:48.901Z,40.80
2023-02-16T01:57:57.285Z,43.77
2023-02-16T02:03:18.594Z,38.73
2023-02-16T02:08:27.989Z,37.30
2023-02-16T02:13:37.251Z,34.70
2023-02-16T02:18:41.545Z,36.90
2023-02-16T02:24:16.196Z,32.60
2023-02-16T02:29:41.698Z,39.50
2023-02-16T02:35:05.290Z,34.10
2023-02-16T02:40:19.057Z,39.83
2023-02-16T02:45:28.040Z,37.03
2023-02-16T02:51:07.576Z,34.13
2023-02-16T02:56:32.448Z,35.23
2023-02-16T03:01:41.517Z,30.43
2023-02-16T03:06:49.038Z,35.73
2023-02-16T03:12:11.979Z,39.60
2023-02-16T03:17:36.926Z,35.40
2023-02-16T03:22:57.621Z,32.10
2023-02-16T03:28:19.878Z,35.63
2023-02-16T03:33:25.997Z,35.37
2023-02-16T03:38:29.327Z,29.87
2023-02-16T03:43:32.808Z,32.33
2023-02-16T03:48:38.334Z,33.30
2023-02-16T03:53:41.314Z,36.87
2023-02-16T03:58:44.187Z,34.60
2023-02-16T04:03:48.483Z,32.67
2023-02-16T04:08:51.939Z,39.37
2023-02-16T04:13:54.879Z,39.07
2023-02-16T04:18:59.118Z,39.07
2023-02-16T04:24:02.606Z,37.97
2023-02-16T04:29:05.530Z,36.13
2023-02-16T04:34:10.014Z,37.10
2023-02-16T04:39:12.894Z,33.17
2023-02-16T04:44:15.786Z,31.87
2023-02-16T04:49:20.050Z,39.40
2023-02-16T04:54:23.566Z,36.97
2023-02-16T04:59:27.116Z,34.83
2023-02-16T05:04:31.944Z,45.13
2023-02-16T05:09:34.908Z,42.53
2023-02-16T05:14:45.068Z,41.93
2023-02-16T05:19:51.250Z,36.33
2023-02-16T05:24:54.223Z,37.13
2023-02-16T05:29:58.085Z,40.20
2023-02-16T05:35:02.468Z,31.73
2023-02-16T05:40:05.993Z,33.00
2023-02-16T05:45:09.924Z,33.20
2023-02-16T05:50:14.326Z,36.13
2023-02-16T05:55:17.208Z,33.67
2023-02-16T06:00:21.570Z,41.90
2023-02-16T06:05:25.805Z,69.83
2023-02-16T06:10:28.698Z,43.00
2023-02-16T06:15:31.654Z,34.93
2023-02-16T06:20:35.940Z,30.40
2023-02-16T06:25:39.492Z,30.13
2023-02-16T06:30:43.027Z,30.50
2023-02-16T06:35:47.300Z,26.57
2023-02-16T06:40:52.989Z,28.33
2023-02-16T06:45:55.898Z,30.40
2023-02-16T06:51:00.176Z,31.50
2023-02-16T06:56:03.045Z,28.77
2023-02-16T07:01:06.553Z,37.37
2023-02-16T07:06:11.021Z,34.53
2023-02-16T07:11:15.892Z,38.40
2023-02-16T07:16:18.987Z,35.10
2023-02-16T07:21:23.345Z,30.50
2023-02-16T07:26:26.578Z,32.50
2023-02-16T07:31:29.553Z,33.20
2023-02-16T07:36:34.123Z,35.30
2023-02-16T07:41:37.044Z,40.80
2023-02-16T07:46:43.670Z,40.60
2023-02-16T07:51:47.923Z,36.03
2023-02-16T07:56:50.822Z,33.33
2023-02-16T08:01:53.825Z,32.30
2023-02-16T08:06:58.342Z,35.80
2023-02-16T08:12:01.270Z,37.00
2023-02-16T08:17:04.366Z,35.53
2023-02-16T08:22:09.995Z,46.67
2023-02-16T08:27:12.956Z,35.43
2023-02-16T08:32:15.898Z,67.03
2023-02-16T08:37:20.197Z,47.07
2023-02-16T08:42:23.070Z,63.50
2023-02-16T08:47:25.942Z,53.23
2023-02-16T08:52:30.249Z,54.50
2023-02-16T08:57:34.784Z,65.73
2023-02-16T09:02:37.725Z,48.33
2023-02-16T09:07:42.046Z,39.47
2023-02-16T09:12:48.432Z,38.37
2023-02-16T09:17:51.568Z,41.73
2023-02-16T09:22:55.859Z,44.20
2023-02-16T09:27:58.781Z,46.37
2023-02-16T09:33:02.154Z,42.10
2023-02-16T09:38:07.683Z,33.70
2023-02-16T09:43:25.890Z,41.67
2023-02-16T09:48:37.533Z,31.60
2023-02-16T09:53:46.483Z,30.60
2023-02-16T09:58:56.780Z,38.70
2023-02-16T10:04:12.265Z,32.87
2023-02-16T10:09:19.671Z,27.50
2023-02-16T10:14:32.617Z,33.70
2023-02-16T10:19:40.500Z,35.70
2023-02-16T10:24:53.836Z,31.63
2023-02-16T10:29:57.029Z,35.20
2023-02-16T10:35:13.519Z,22.17
2023-02-16T10:40:32.521Z,23.80
2023-02-16T10:45:41.185Z,24.30
2023-02-16T10:50:50.710Z,22.13
2023-02-16T10:55:55.513Z,22.53
2023-02-16T11:01:06.756Z,19.23
2023-02-16T11:06:15.647Z,21.67
2023-02-16T11:11:22.817Z,20.13
2023-02-16T11:16:26.300Z,24.40
2023-02-16T11:21:47.383Z,26.97
2023-02-16T11:27:00.914Z,22.50
2023-02-16T11:32:08.979Z,22.43
2023-02-16T11:37:17.064Z,23.70
2023-02-16T11:42:29.929Z,24.80
2023-02-16T11:47:35.446Z,22.33
2023-02-16T11:52:38.451Z,24.10
2023-02-16T11:57:42.707Z,23.37
2023-02-16T12:03:11.063Z,24.13
2023-02-16T12:08:39.393Z,27.03
2023-02-16T12:13:56.383Z,22.93
2023-02-16T12:19:09.582Z,25.30
2023-02-16T12:24:26.580Z,21.13
2023-02-16T12:29:41.450Z,23.27
2023-02-16T12:34:59.585Z,23.30
2023-02-16T12:40:17.985Z,25.27
2023-02-16T12:45:24.964Z,20.30
2023-02-16T12:50:30.582Z,26.00
2023-02-16T12:55:39.279Z,21.97
2023-02-16T13:00:48.609Z,25.33
2023-02-16T13:06:00.881Z,20.73
2023-02-16T13:11:09.672Z,21.63
2023-02-16T13:16:28.926Z,25.60
2023-02-16T13:21:51.370Z,22.73
2023-02-16T13:27:08.937Z,22.83
2023-02-16T13:32:38.555Z,21.03
2023-02-16T13:38:01.181Z,24.83
2023-02-16T13:43:17.707Z,20.73
2023-02-16T13:48:26.937Z,22.77
2023-02-16T13:53:37.477Z,18.50
2023-02-16T13:58:41.621Z,18.90
2023-02-16T14:03:45.960Z,22.00
2023-02-16T14:09:29.862Z,19.77
2023-02-16T14:14:36.435Z,18.73
2023-02-16T14:19:40.785Z,18.00
2023-02-16T14:24:44.750Z,19.07
2023-02-16T14:29:57.629Z,17.10
2023-02-16T14:35:09.236Z,16.60
2023-02-16T14:40:18.309Z,15.80
2023-02-16T14:45:54.119Z,17.33
2023-02-16T14:51:18.316Z,14.87
2023-02-16T14:56:44.005Z,19.50
2023-02-16T15:01:47.207Z,16.87
2023-02-16T15:06:51.583Z,20.10
2023-02-16T15:12:14.351Z,17.40
2023-02-16T15:17:26.945Z,21.37
2023-02-16T15:22:31.801Z,18.10
2023-02-16T15:27:34.971Z,18.27
2023-02-16T15:32:38.495Z,19.90
2023-02-16T15:37:42.881Z,17.53
2023-02-16T15:42:46.006Z,16.77
2023-02-16T15:47:49.322Z,18.50
2023-02-16T15:52:54.900Z,18.97
2023-02-16T15:57:59.002Z,18.67
2023-02-16T16:03:02.711Z,20.70
2023-02-16T16:08:12.289Z,34.60
2023-02-16T16:13:19.993Z,32.93
2023-02-16T16:18:43.290Z,20.07
2023-02-16T16:24:00.504Z,17.70
2023-02-16T16:29:04.224Z,19.97
2023-02-16T16:34:09.000Z,20.07
2023-02-16T16:39:27.563Z,27.93
2023-02-16T16:44:35.000Z,20.43
2023-02-16T16:49:38.036Z,19.50
2023-02-16T16:54:42.650Z,18.73
2023-02-16T16:59:47.310Z,20.20
2023-02-16T17:04:50.685Z,25.10
2023-02-16T17:09:55.531Z,23.27
2023-02-16T17:14:59.801Z,21.40
2023-02-16T17:20:03.457Z,20.63
2023-02-16T17:25:08.272Z,21.17
2023-02-16T17:30:12.649Z,20.13
2023-02-16T17:35:16.112Z,16.80
2023-02-16T17:40:23.518Z,21.90
2023-02-16T17:45:26.530Z,16.50
2023-02-16T17:50:30.387Z,19.87
2023-02-16T17:55:35.631Z,17.87
2023-02-16T18:00:39.266Z,18.90
2023-02-16T18:05:42.425Z,15.63
2023-02-16T18:10:48.486Z,17.50
2023-02-16T18:15:51.434Z,17.27
2023-02-16T18:20:54.554Z,15.33
2023-02-16T18:25:58.983Z,12.87
2023-02-16T18:31:02.994Z,12.00
2023-02-16T18:36:06.810Z,11.53
2023-02-16T18:41:11.459Z,15.97
2023-02-16T18:46:14.516Z,15.77
2023-02-16T18:51:18.403Z,17.70
2023-02-16T18:56:22.719Z,25.37
2023-02-16T19:01:30.813Z,16.70
2023-02-16T19:06:34.113Z,13.43
2023-02-16T19:11:38.475Z,13.40
2023-02-16T19:16:41.955Z,18.57
2023-02-16T19:21:45.467Z,14.03
2023-02-16T19:26:49.717Z,16.60
2023-02-16T19:31:52.746Z,21.73
2023-02-16T19:36:55.736Z,16.10
2023-02-16T19:42:00.646Z,17.70
2023-02-16T19:47:04.193Z,19.60
2023-02-16T19:52:07.109Z,23.03
2023-02-16T19:57:11.378Z,18.80
2023-02-16T20:02:15.560Z,20.20
2023-02-16T20:07:18.490Z,24.90
2023-02-16T20:12:22.745Z,23.63
2023-02-16T20:17:25.933Z,52.67
2023-02-16T20:22:28.927Z,23.73
2023-02-16T20:27:33.431Z,23.93
2023-02-16T20:32:36.541Z,22.53
2023-02-16T20:37:39.494Z,25.50
2023-02-16T20:42:43.975Z,22.10
2023-02-16T20:47:46.903Z,24.50
2023-02-16T20:52:49.829Z,25.03
2023-02-16T20:57:54.096Z,21.40
2023-02-16T21:02:57.154Z,22.40
2023-02-16T21:08:00.114Z,24.00
2023-02-16T21:13:04.422Z,18.53
2023-02-16T21:18:07.311Z,21.10
2023-02-16T21:23:10.266Z,34.30
2023-02-16T21:28:14.759Z,23.43
2023-02-16T21:33:17.699Z,23.73
2023-02-16T21:38:20.603Z,20.53
2023-02-16T21:43:24.947Z,24.77
2023-02-16T21:48:45.139Z,25.30
2023-02-16T21:53:48.317Z,20.70
2023-02-16T21:58:52.608Z,22.07
2023-02-16T22:03:58.736Z,20.77
2023-02-16T22:09:02.103Z,25.73
2023-02-16T22:14:06.460Z,20.30
2023-02-16T22:19:12.781Z,20.53
2023-02-16T22:24:17.389Z,16.27
2023-02-16T22:29:21.698Z,18.67
2023-02-16T22:34:24.621Z,19.70
2023-02-16T22:39:27.509Z,17.47
2023-02-16T22:44:31.797Z,18.10
2023-02-16T22:49:34.742Z,17.23
2023-02-16T22:54:37.824Z,18.93
2023-02-16T22:59:42.175Z,21.40
2023-02-16T23:04:45.086Z,18.30
2023-02-16T23:09:47.952Z,21.03
2023-02-16T23:14:52.185Z,15.40
2023-02-16T23:19:55.070Z,15.73
2023-02-16T23:25:11.814Z,15.43
2023-02-16T23:30:16.283Z,18.73
2023-02-16T23:35:19.482Z,17.50
2023-02-16T23:40:22.448Z,15.97
2023-02-16T23:45:26.749Z,16.17
2023-02-16T23:50:29.782Z,18.30
2023-02-16T23:55:32.691Z,17.30
